createdAt,value
2023-05-23T00:02:08.727Z,22.20
2023-05-23T00:05:31.192Z,22.10
2023-05-23T00:08:53.519Z,22.20
2023-05-23T00:12:15.829Z,22.20
2023-05-23T00:15:42.036Z,22.10
2023-05-23T00:19:05.462Z,22.20
2023-05-23T00:22:27.865Z,22.20
2023-05-23T00:25:53.448Z,22.20
2023-05-23T00:29:16.887Z,22.10
2023-05-23T00:32:39.441Z,22.10
2023-05-23T00:36:01.787Z,22.10
2023-05-23T00:39:24.068Z,22.10
2023-05-23T00:42:47.507Z,22.10
2023-05-23T00:46:11.234Z,22.10
2023-05-23T00:49:34.259Z,22.10
2023-05-23T00:52:58.867Z,22.10
2023-05-23T00:56:21.289Z,22.10
2023-05-23T00:59:45.524Z,22.10
2023-05-23T01:03:08.355Z,22.10
2023-05-23T01:06:33.744Z,22.10
2023-05-23T01:09:56.131Z,22.10
2023-05-23T01:13:21.496Z,22.10
2023-05-23T01:17:07.507Z,22.10
2023-05-23T01:20:52.075Z,22.10
2023-05-23T01:24:36.388Z,22.10
2023-05-23T01:28:03.913Z,22.00
2023-05-23T01:31:27.856Z,22.10
2023-05-23T01:34:53.424Z,22.10
2023-05-23T01:38:15.834Z,22.10
2023-05-23T01:41:38.414Z,22.10
2023-05-23T01:45:01.061Z,22.10
2023-05-23T01:48:26.557Z,22.10
2023-05-23T01:51:49.401Z,22.10
2023-05-23T01:55:14.255Z,22.00
2023-05-23T01:58:36.982Z,22.00
2023-05-23T02:01:59.679Z,22.00
2023-05-23T02:05:22.129Z,22.00
2023-05-23T02:08:44.411Z,22.10
2023-05-23T02:12:07.072Z,22.00
2023-05-23T02:15:29.536Z,22.00
2023-05-23T02:18:56.285Z,22.00
2023-05-23T02:22:22.720Z,22.00
2023-05-23T02:25:45.109Z,22.00
2023-05-23T02:29:07.452Z,22.00
2023-05-23T02:32:30.331Z,22.00
2023-05-23T02:35:52.835Z,22.00
2023-05-23T02:39:15.187Z,22.00
2023-05-23T02:42:38.118Z,22.00
2023-05-23T02:46:00.522Z,21.90
2023-05-23T02:49:22.845Z,22.00
2023-05-23T02:52:46.694Z,21.90
2023-05-23T02:56:09.742Z,21.90
2023-05-23T02:59:32.219Z,21.90
2023-05-23T03:02:54.662Z,21.90
2023-05-23T03:06:17.228Z,21.90
2023-05-23T03:09:39.801Z,21.90
2023-05-23T03:13:02.142Z,21.90
2023-05-23T03:16:24.940Z,21.90
2023-05-23T03:19:47.578Z,21.90
2023-05-23T03:23:09.872Z,21.90
2023-05-23T03:26:32.461Z,21.90
2023-05-23T03:29:54.727Z,21.90
2023-05-23T03:33:16.978Z,21.90
2023-05-23T03:36:39.336Z,21.90
2023-05-23T03:40:01.709Z,21.90
2023-05-23T03:43:25.200Z,21.90
2023-05-23T03:46:47.561Z,21.80
2023-05-23T03:50:11.411Z,21.80
2023-05-23T03:53:36.445Z,21.80
2023-05-23T03:56:59.878Z,21.90
2023-05-23T04:00:22.332Z,21.90
2023-05-23T04:03:46.610Z,21.90
2023-05-23T04:07:10.041Z,21.80
2023-05-23T04:10:34.085Z,21.90
2023-05-23T04:13:56.733Z,21.80
2023-05-23T04:17:19.101Z,21.80
2023-05-23T04:20:41.997Z,21.80
2023-05-23T04:24:04.560Z,21.80
2023-05-23T04:27:27.353Z,21.90
2023-05-23T04:30:50.247Z,21.80
2023-05-23T04:34:17.264Z,21.80
2023-05-23T04:37:39.814Z,21.80
2023-05-23T04:41:02.405Z,21.80
2023-05-23T04:44:34.148Z,21.80
2023-05-23T04:48:08.424Z,21.80
2023-05-23T04:51:35.236Z,21.80
2023-05-23T04:55:08.821Z,21.80
2023-05-23T04:58:31.922Z,21.80
2023-05-23T05:01:59.122Z,21.80
2023-05-23T05:05:21.606Z,21.80
2023-05-23T05:08:43.944Z,21.80
2023-05-23T05:12:07.482Z,21.80
2023-05-23T05:15:29.784Z,21.80
2023-05-23T05:18:54.288Z,21.80
2023-05-23T05:22:18.417Z,21.80
2023-05-23T05:25:41.363Z,21.80
2023-05-23T05:29:04.217Z,21.80
2023-05-23T05:32:26.762Z,21.80
2023-05-23T05:35:51.590Z,21.80
2023-05-23T05:39:17.000Z,21.80
2023-05-23T05:42:39.546Z,21.80
2023-05-23T05:46:02.020Z,21.90
2023-05-23T05:49:25.048Z,21.90
2023-05-23T05:52:47.440Z,21.90
2023-05-23T05:56:09.737Z,21.90
2023-05-23T05:59:34.006Z,21.90
2023-05-23T06:02:59.878Z,22.00
2023-05-23T06:06:34.226Z,21.90
2023-05-23T06:09:56.519Z,22.00
2023-05-23T06:13:18.894Z,22.00
2023-05-23T06:16:46.662Z,22.10
2023-05-23T06:20:09.326Z,22.10
2023-05-23T06:23:34.515Z,22.10
2023-05-23T06:26:56.857Z,22.10
2023-05-23T06:30:20.330Z,22.10
2023-05-23T06:33:43.180Z,22.10
2023-05-23T06:37:06.362Z,22.10
2023-05-23T06:40:28.808Z,22.10
2023-05-23T06:43:51.168Z,22.10
2023-05-23T06:47:21.176Z,22.10
2023-05-23T06:50:43.628Z,22.10
2023-05-23T06:54:07.734Z,22.00
2023-05-23T06:57:30.445Z,22.00
2023-05-23T07:00:53.203Z,22.00
2023-05-23T07:04:28.002Z,22.00
2023-05-23T07:07:54.456Z,22.00
2023-05-23T07:11:17.794Z,22.00
2023-05-23T07:14:45.679Z,22.00
2023-05-23T07:18:09.523Z,22.00
2023-05-23T07:21:32.126Z,21.90
2023-05-23T07:24:54.639Z,22.00
2023-05-23T07:28:21.578Z,22.00
2023-05-23T07:31:44.413Z,22.00
2023-05-23T07:35:08.833Z,22.00
2023-05-23T07:38:31.428Z,22.00
2023-05-23T07:41:54.238Z,22.00
2023-05-23T07:45:16.759Z,22.10
2023-05-23T07:48:39.328Z,22.10
2023-05-23T07:52:01.733Z,22.20
2023-05-23T07:55:24.509Z,22.20
2023-05-23T07:58:50.923Z,22.30
2023-05-23T08:02:13.575Z,22.30
2023-05-23T08:05:36.796Z,22.30
2023-05-23T08:08:59.118Z,22.30
2023-05-23T08:12:22.662Z,22.40
2023-05-23T08:15:53.994Z,22.40
2023-05-23T08:19:20.295Z,22.40
2023-05-23T08:22:42.554Z,22.40
2023-05-23T08:26:05.709Z,22.40
2023-05-23T08:29:28.353Z,22.30
2023-05-23T08:32:51.572Z,22.30
2023-05-23T08:36:13.946Z,22.30
2023-05-23T08:39:37.457Z,22.30
2023-05-23T08:43:25.699Z,22.30
2023-05-23T08:46:50.032Z,22.30
2023-05-23T08:50:39.558Z,22.40
2023-05-23T08:54:02.609Z,22.40
2023-05-23T08:57:26.782Z,22.30
2023-05-23T09:00:55.554Z,22.30
2023-05-23T09:04:18.784Z,22.40
2023-05-23T09:07:51.501Z,22.40
2023-05-23T09:11:14.824Z,22.30
2023-05-23T09:14:39.470Z,22.40
2023-05-23T09:18:04.349Z,22.40
2023-05-23T09:21:32.209Z,22.40
2023-05-23T09:25:05.391Z,22.40
2023-05-23T09:28:28.103Z,22.40
2023-05-23T09:31:50.537Z,22.40
2023-05-23T09:35:14.022Z,22.30
2023-05-23T09:38:41.037Z,22.40
2023-05-23T09:42:05.056Z,22.40
2023-05-23T09:45:31.236Z,22.30
2023-05-23T09:48:54.439Z,22.20
2023-05-23T09:52:16.701Z,22.20
2023-05-23T09:55:40.476Z,22.30
2023-05-23T09:59:03.999Z,22.30
2023-05-23T10:02:45.113Z,22.30
2023-05-23T10:06:12.232Z,22.30
2023-05-23T10:09:38.190Z,22.30
2023-05-23T10:13:06.162Z,22.30
2023-05-23T10:16:48.242Z,22.30
2023-05-23T10:20:17.774Z,22.30
2023-05-23T10:23:40.906Z,22.30
2023-05-23T10:27:03.866Z,22.40
2023-05-23T10:30:29.330Z,22.40
2023-05-23T10:33:58.527Z,22.40
2023-05-23T10:37:32.475Z,22.40
2023-05-23T10:41:38.336Z,22.40
2023-05-23T10:45:20.753Z,22.40
2023-05-23T10:48:44.532Z,22.40
2023-05-23T10:52:07.623Z,22.40
2023-05-23T10:55:37.041Z,22.40
2023-05-23T10:58:59.328Z,22.40
2023-05-23T11:02:29.416Z,22.40
2023-05-23T11:05:54.458Z,22.40
2023-05-23T11:09:21.504Z,22.40
2023-05-23T11:12:45.089Z,22.40
2023-05-23T11:16:26.523Z,22.40
2023-05-23T11:20:13.307Z,22.40
2023-05-23T11:23:42.054Z,22.50
2023-05-23T11:27:04.741Z,22.50
2023-05-23T11:30:29.218Z,22.50
2023-05-23T11:33:51.846Z,22.50
2023-05-23T11:37:14.416Z,22.50
2023-05-23T11:40:47.598Z,22.50
2023-05-23T11:44:13.891Z,22.50
2023-05-23T11:47:41.432Z,22.50
2023-05-23T11:51:03.881Z,22.50
2023-05-23T11:54:27.246Z,22.50
2023-05-23T11:57:51.963Z,22.50
2023-05-23T12:01:14.383Z,22.50
2023-05-23T12:04:37.368Z,22.50
2023-05-23T12:08:00.944Z,22.50
2023-05-23T12:11:24.584Z,22.50
2023-05-23T12:14:46.974Z,22.50
2023-05-23T12:18:09.605Z,22.60
2023-05-23T12:21:45.921Z,22.50
2023-05-23T12:25:11.330Z,22.50
2023-05-23T12:28:47.696Z,22.60
2023-05-23T12:32:09.943Z,22.60
2023-05-23T12:35:32.321Z,22.50
2023-05-23T12:39:01.803Z,22.60
2023-05-23T12:42:24.129Z,22.50
2023-05-23T12:45:46.363Z,22.50
2023-05-23T12:49:08.635Z,22.60
2023-05-23T12:52:30.888Z,22.60
2023-05-23T12:55:53.154Z,22.50
2023-05-23T12:59:15.311Z,22.50
2023-05-23T13:02:37.917Z,22.60
2023-05-23T13:06:00.408Z,22.50
2023-05-23T13:09:22.862Z,22.50
2023-05-23T13:12:45.102Z,22.60
2023-05-23T13:16:07.310Z,22.60
2023-05-23T13:19:29.808Z,22.60
2023-05-23T13:22:52.091Z,22.60
2023-05-23T13:26:14.675Z,22.60
2023-05-23T13:29:36.970Z,22.60
2023-05-23T13:32:59.344Z,22.60
2023-05-23T13:36:21.896Z,22.60
2023-05-23T13:39:44.177Z,22.60
2023-05-23T13:43:06.584Z,22.60
2023-05-23T13:46:28.889Z,22.60
2023-05-23T13:49:51.325Z,22.60
2023-05-23T13:53:17.007Z,22.60
2023-05-23T13:56:40.410Z,22.60
2023-05-23T14:00:03.706Z,22.60
2023-05-23T14:03:27.267Z,22.60
2023-05-23T14:06:49.883Z,22.60
2023-05-23T14:10:12.187Z,22.60
2023-05-23T14:13:34.398Z,22.60
2023-05-23T14:16:57.823Z,22.60
2023-05-23T14:20:20.028Z,22.60
2023-05-23T14:23:42.485Z,22.60
2023-05-23T14:27:04.860Z,22.70
2023-05-23T14:30:27.185Z,22.60
2023-05-23T14:33:49.969Z,22.70
2023-05-23T14:37:12.271Z,22.70
2023-05-23T14:40:34.485Z,22.60
2023-05-23T14:43:56.753Z,22.60
2023-05-23T14:47:19.139Z,22.70
2023-05-23T14:50:42.517Z,22.70
2023-05-23T14:54:04.835Z,22.70
2023-05-23T14:57:27.141Z,22.70
2023-05-23T15:00:49.810Z,22.70
2023-05-23T15:04:12.050Z,22.80
2023-05-23T15:07:35.231Z,22.90
2023-05-23T15:10:57.698Z,22.80
2023-05-23T15:14:20.717Z,22.80
2023-05-23T15:17:43.489Z,22.90
2023-05-23T15:21:05.808Z,22.80
2023-05-23T15:24:28.565Z,22.90
2023-05-23T15:27:50.822Z,22.90
2023-05-23T15:31:13.559Z,22.90
2023-05-23T15:34:36.181Z,22.90
2023-05-23T15:37:58.443Z,22.80
2023-05-23T15:41:20.718Z,22.90
2023-05-23T15:44:43.000Z,22.90
2023-05-23T15:48:07.333Z,22.90
2023-05-23T15:51:32.588Z,22.90
2023-05-23T15:54:54.784Z,22.80
2023-05-23T15:58:17.114Z,22.70
2023-05-23T16:01:39.623Z,22.70
2023-05-23T16:05:02.422Z,22.60
2023-05-23T16:08:24.681Z,22.60
2023-05-23T16:11:47.028Z,22.50
2023-05-23T16:15:09.816Z,22.50
2023-05-23T16:18:32.121Z,22.50
2023-05-23T16:21:54.345Z,22.40
2023-05-23T16:25:16.687Z,22.40
2023-05-23T16:28:38.937Z,22.40
2023-05-23T16:32:01.506Z,22.40
2023-05-23T16:35:23.981Z,22.30
2023-05-23T16:38:46.403Z,22.30
2023-05-23T16:42:08.644Z,22.20
2023-05-23T16:45:30.887Z,22.20
2023-05-23T16:48:54.058Z,22.10
2023-05-23T16:52:16.723Z,22.10
2023-05-23T16:55:39.151Z,22.00
2023-05-23T16:59:01.813Z,22.00
2023-05-23T17:02:24.284Z,21.90
2023-05-23T17:05:46.630Z,21.90
2023-05-23T17:09:08.935Z,21.90
2023-05-23T17:12:31.208Z,21.80
2023-05-23T17:15:53.729Z,21.80
2023-05-23T17:19:16.124Z,21.80
2023-05-23T17:22:38.786Z,21.70
2023-05-23T17:26:01.134Z,21.70
2023-05-23T17:29:23.384Z,21.60
2023-05-23T17:32:47.269Z,21.50
2023-05-23T17:36:11.009Z,21.40
2023-05-23T17:39:33.318Z,21.50
2023-05-23T17:42:55.688Z,21.70
2023-05-23T17:46:18.015Z,21.80
2023-05-23T17:49:41.801Z,22.00
2023-05-23T17:53:04.621Z,22.10
2023-05-23T17:56:26.923Z,22.10
2023-05-23T17:59:49.410Z,22.20
2023-05-23T18:03:11.946Z,22.20
2023-05-23T18:06:34.283Z,22.30
2023-05-23T18:09:59.697Z,22.40
2023-05-23T18:13:21.988Z,22.30
2023-05-23T18:16:44.247Z,22.20
2023-05-23T18:20:07.622Z,22.30
2023-05-23T18:23:29.931Z,22.40
2023-05-23T18:26:52.210Z,22.50
2023-05-23T18:30:14.654Z,22.50
2023-05-23T18:33:37.169Z,22.50
2023-05-23T18:36:59.634Z,22.60
2023-05-23T18:40:23.984Z,22.60
2023-05-23T18:43:46.478Z,22.60
2023-05-23T18:47:08.704Z,22.60
2023-05-23T18:50:30.960Z,22.60
2023-05-23T18:53:53.213Z,22.30
2023-05-23T18:57:17.309Z,22.10
2023-05-23T19:00:39.704Z,22.20
2023-05-23T19:04:02.158Z,22.20
2023-05-23T19:07:24.414Z,22.30
2023-05-23T19:10:46.565Z,22.30
2023-05-23T19:14:09.053Z,22.30
2023-05-23T19:17:31.388Z,22.20
2023-05-23T19:20:54.558Z,22.20
2023-05-23T19:24:16.947Z,22.20
2023-05-23T19:27:39.116Z,22.20
2023-05-23T19:31:01.678Z,22.20
2023-05-23T19:34:24.002Z,22.00
2023-05-23T19:37:46.383Z,22.10
2023-05-23T19:41:08.772Z,22.10
2023-05-23T19:44:31.484Z,22.00
2023-05-23T19:47:53.798Z,22.10
2023-05-23T19:51:16.286Z,22.10
2023-05-23T19:54:38.911Z,22.20
2023-05-23T19:58:01.730Z,22.20
2023-05-23T20:01:24.027Z,22.30
2023-05-23T20:04:46.500Z,22.30
2023-05-23T20:08:08.861Z,22.30
2023-05-23T20:11:31.313Z,22.40
2023-05-23T20:14:53.701Z,22.40
2023-05-23T20:18:16.030Z,22.40
2023-05-23T20:21:38.413Z,22.40
2023-05-23T20:25:01.299Z,22.40
2023-05-23T20:28:23.715Z,22.40
2023-05-23T20:31:46.330Z,22.40
2023-05-23T20:35:09.095Z,22.40
2023-05-23T20:38:34.011Z,22.40
2023-05-23T20:41:56.494Z,22.40
2023-05-23T20:45:18.946Z,22.40
2023-05-23T20:48:41.834Z,22.40
2023-05-23T20:52:05.455Z,22.40
2023-05-23T20:55:29.173Z,22.30
2023-05-23T20:58:51.603Z,22.40
2023-05-23T21:02:13.920Z,22.40
2023-05-23T21:05:36.509Z,22.40
2023-05-23T21:08:58.800Z,22.40
2023-05-23T21:12:21.075Z,22.40
2023-05-23T21:15:43.512Z,22.40
2023-05-23T21:19:05.894Z,22.40
2023-05-23T21:22:28.202Z,22.30
2023-05-23T21:25:50.536Z,22.40
2023-05-23T21:29:13.004Z,22.30
2023-05-23T21:32:35.379Z,22.30
2023-05-23T21:36:00.810Z,22.30
2023-05-23T21:39:23.232Z,22.30
2023-05-23T21:42:45.558Z,22.30
2023-05-23T21:46:07.933Z,22.30
2023-05-23T21:49:35.224Z,22.30
2023-05-23T21:52:57.542Z,22.30
2023-05-23T21:56:19.763Z,22.30
2023-05-23T21:59:42.033Z,22.30
2023-05-23T22:03:04.796Z,22.30
2023-05-23T22:06:27.228Z,22.30
2023-05-23T22:09:51.179Z,22.30
2023-05-23T22:13:13.405Z,22.30
2023-05-23T22:16:41.630Z,22.30
2023-05-23T22:20:05.423Z,22.30
2023-05-23T22:23:27.693Z,22.30
2023-05-23T22:26:49.967Z,22.30
2023-05-23T22:30:12.706Z,22.30
2023-05-23T22:33:34.928Z,22.20
2023-05-23T22:36:59.843Z,22.20
2023-05-23T22:40:22.654Z,22.20
2023-05-23T22:43:45.099Z,22.20
2023-05-23T22:47:07.347Z,22.20
2023-05-23T22:50:29.617Z,22.20
2023-05-23T22:53:52.769Z,22.20
2023-05-23T22:57:15.065Z,22.20
2023-05-23T23:00:37.642Z,22.20
2023-05-23T23:04:00.208Z,22.20
2023-05-23T23:07:22.546Z,22.20
2023-05-23T23:10:45.344Z,22.20
2023-05-23T23:14:08.055Z,22.20
2023-05-23T23:17:30.612Z,22.20
2023-05-23T23:20:54.310Z,22.20
2023-05-23T23:24:16.692Z,22.20
2023-05-23T23:27:39.487Z,22.10
2023-05-23T23:31:02.069Z,22.10
2023-05-23T23:34:24.296Z,22.10
2023-05-23T23:37:46.517Z,22.10
2023-05-23T23:41:08.781Z,22.10
2023-05-23T23:44:31.055Z,22.10
2023-05-23T23:47:53.301Z,22.10
2023-05-23T23:51:15.890Z,22.10
2023-05-23T23:54:38.055Z,22.10
2023-05-23T23:58:00.364Z,22.10
